createdAt,value
2019-05-06T00:01:39.693Z,3.57
2019-05-06T00:06:43.975Z,4.03
2019-05-06T00:11:46.485Z,4.57
2019-05-06T00:16:49.523Z,4.43
2019-05-06T00:21:53.875Z,4.67
2019-05-06T00:27:09.121Z,5.00
2019-05-06T00:32:11.641Z,5.30
2019-05-06T00:37:14.716Z,4.77
2019-05-06T00:42:44.509Z,5.07
2019-05-06T00:47:46.546Z,5.40
2019-05-06T00:52:49.977Z,5.13
2019-05-06T00:57:51.911Z,4.83
2019-05-06T01:02:54.306Z,5.37
2019-05-06T01:07:56.818Z,4.60
2019-05-06T01:13:24.729Z,4.60
2019-05-06T01:18:26.682Z,4.73
2019-05-06T01:23:28.737Z,4.60
2019-05-06T01:28:30.669Z,4.40
2019-05-06T01:33:34.959Z,4.67
2019-05-06T01:38:58.577Z,4.87
2019-05-06T01:44:00.564Z,4.10
2019-05-06T01:49:04.292Z,4.60
2019-05-06T01:54:06.360Z,4.53
2019-05-06T01:59:09.162Z,4.80
2019-05-06T02:04:10.997Z,4.77
2019-05-06T02:09:14.777Z,4.90
2019-05-06T02:14:16.951Z,5.30
2019-05-06T02:19:19.197Z,4.87
2019-05-06T02:24:25.512Z,5.30
2019-05-06T02:29:30.237Z,5.70
2019-05-06T02:34:46.080Z,4.90
2019-05-06T02:39:48.274Z,4.93
2019-05-06T02:44:50.511Z,5.50
2019-05-06T02:49:56.043Z,5.97
2019-05-06T02:54:57.984Z,5.60
2019-05-06T02:59:59.804Z,5.67
2019-05-06T03:05:04.338Z,4.80
2019-05-06T03:10:07.190Z,5.80
2019-05-06T03:15:09.682Z,5.40
2019-05-06T03:20:24.221Z,6.00
2019-05-06T03:25:28.717Z,5.93
2019-05-06T03:30:35.854Z,5.67
2019-05-06T03:35:50.252Z,6.13
2019-05-06T03:40:41.928Z,5.90
2019-05-06T03:45:53.650Z,6.43
2019-05-06T03:50:56.170Z,6.03
2019-05-06T03:55:58.216Z,6.63
2019-05-06T04:01:03.791Z,6.57
2019-05-06T04:06:05.771Z,6.60
2019-05-06T04:11:09.221Z,6.50
2019-05-06T04:16:28.285Z,6.40
2019-05-06T04:21:38.381Z,5.97
2019-05-06T04:26:49.581Z,7.27
2019-05-06T04:31:54.044Z,6.80
2019-05-06T04:36:55.698Z,6.70
2019-05-06T04:41:59.162Z,6.80
2019-05-06T04:47:05.063Z,5.70
2019-05-06T04:52:06.332Z,6.27
2019-05-06T04:57:08.689Z,6.00
2019-05-06T05:02:13.296Z,5.70
2019-05-06T05:07:16.388Z,6.50
2019-05-06T05:12:24.908Z,5.90
2019-05-06T05:17:42.087Z,6.60
2019-05-06T05:22:46.486Z,6.43
2019-05-06T05:27:50.102Z,6.40
2019-05-06T05:32:52.179Z,6.13
2019-05-06T05:37:55.376Z,5.97
2019-05-06T05:43:22.408Z,6.50
2019-05-06T05:48:36.175Z,6.23
2019-05-06T05:53:38.241Z,6.53
2019-05-06T05:58:42.438Z,5.93
2019-05-06T06:03:44.629Z,5.73
2019-05-06T06:08:47.200Z,5.77
2019-05-06T06:13:49.536Z,6.20
2019-05-06T06:19:14.465Z,6.13
2019-05-06T06:24:27.057Z,6.40
2019-05-06T06:29:29.087Z,5.83
2019-05-06T06:34:36.480Z,6.13
2019-05-06T06:39:42.297Z,9.73
2019-05-06T06:44:44.699Z,5.23
2019-05-06T06:49:47.991Z,5.40
2019-05-06T06:54:52.489Z,5.23
2019-05-06T07:00:13.829Z,5.57
2019-05-06T07:05:28.149Z,4.97
2019-05-06T07:10:43.203Z,4.67
2019-05-06T07:15:45.433Z,4.03
2019-05-06T07:20:58.361Z,3.73
2019-05-06T07:26:02.849Z,3.90
2019-05-06T07:31:19.993Z,4.20
2019-05-06T07:36:09.108Z,5.00
2019-05-06T07:41:16.610Z,5.33
2019-05-06T07:46:33.102Z,8.90
2019-05-06T07:51:35.456Z,3.80
2019-05-06T07:56:37.812Z,6.60
2019-05-06T08:01:43.481Z,3.90
2019-05-06T08:06:44.304Z,7.40
2019-05-06T08:11:46.285Z,6.43
2019-05-06T08:16:55.938Z,4.03
2019-05-06T08:22:02.643Z,3.80
2019-05-06T08:27:04.337Z,3.50
2019-05-06T08:32:06.627Z,3.27
2019-05-06T08:37:27.249Z,3.50
2019-05-06T08:42:29.829Z,2.90
2019-05-06T08:47:32.982Z,3.03
2019-05-06T08:52:54.564Z,2.70
2019-05-06T08:57:57.073Z,3.30
2019-05-06T09:02:59.767Z,3.20
2019-05-06T09:08:03.661Z,3.63
2019-05-06T09:13:05.773Z,3.60
2019-05-06T09:18:07.746Z,5.03
2019-05-06T09:23:12.286Z,2.80
2019-05-06T09:28:30.249Z,4.20
2019-05-06T09:33:39.276Z,3.10
2019-05-06T09:38:42.435Z,3.67
2019-05-06T09:43:44.473Z,4.17
2019-05-06T09:49:04.790Z,2.00
2019-05-06T09:54:13.011Z,2.87
2019-05-06T09:59:15.269Z,3.17
2019-05-06T10:04:17.885Z,2.60
2019-05-06T10:09:20.054Z,2.80
2019-05-06T10:14:23.440Z,2.87
2019-05-06T10:19:26.124Z,3.33
2019-05-06T10:24:27.984Z,3.70
2019-05-06T10:29:35.132Z,2.47
2019-05-06T10:34:37.347Z,3.13
2019-05-06T10:39:44.393Z,2.63
2019-05-06T10:44:56.480Z,3.40
2019-05-06T10:49:58.472Z,3.03
2019-05-06T10:55:03.170Z,2.63
2019-05-06T11:00:06.253Z,2.33
2019-05-06T11:05:09.048Z,2.30
2019-05-06T11:10:23.371Z,2.30
2019-05-06T11:15:15.937Z,2.50
2019-05-06T11:20:18.204Z,2.90
2019-05-06T11:25:22.892Z,2.83
2019-05-06T11:30:44.385Z,2.37
2019-05-06T11:35:58.796Z,2.50
2019-05-06T11:41:03.070Z,2.53
2019-05-06T11:46:05.293Z,2.93
2019-05-06T11:51:12.732Z,2.63
2019-05-06T11:56:14.416Z,2.87
2019-05-06T12:01:23.321Z,2.90
2019-05-06T12:06:25.796Z,2.93
2019-05-06T12:11:27.840Z,2.40
2019-05-06T12:16:29.669Z,3.00
2019-05-06T12:21:33.012Z,2.77
2019-05-06T12:26:35.558Z,2.80
2019-05-06T12:31:38.330Z,3.90
2019-05-06T12:36:42.791Z,2.87
2019-05-06T12:42:00.760Z,2.73
2019-05-06T12:47:21.048Z,2.87
2019-05-06T12:52:23.252Z,2.67
2019-05-06T12:57:25.309Z,3.20
2019-05-06T13:02:27.481Z,2.93
2019-05-06T13:07:36.238Z,2.53
2019-05-06T13:12:42.252Z,2.93
2019-05-06T13:17:44.389Z,2.73
2019-05-06T13:23:20.132Z,2.13
2019-05-06T13:28:16.560Z,2.87
2019-05-06T13:33:27.737Z,2.73
2019-05-06T13:38:31.949Z,2.90
2019-05-06T13:43:39.745Z,3.00
2019-05-06T13:48:47.491Z,2.77
2019-05-06T13:53:49.513Z,2.60
2019-05-06T13:58:52.569Z,2.90
2019-05-06T14:03:55.051Z,3.00
2019-05-06T14:08:58.077Z,3.07
2019-05-06T14:13:59.949Z,2.50
2019-05-06T14:19:04.006Z,2.50
2019-05-06T14:24:06.072Z,3.30
2019-05-06T14:29:32.947Z,3.03
2019-05-06T14:34:35.747Z,3.23
2019-05-06T14:39:52.835Z,2.70
2019-05-06T14:44:45.277Z,2.93
2019-05-06T14:49:47.251Z,2.97
2019-05-06T14:54:54.161Z,3.03
2019-05-06T14:59:56.435Z,3.03
2019-05-06T15:04:58.982Z,3.00
2019-05-06T15:10:16.437Z,3.43
2019-05-06T15:15:08.411Z,3.23
2019-05-06T15:20:12.113Z,3.37
2019-05-06T15:25:14.293Z,3.97
2019-05-06T15:30:23.617Z,3.53
2019-05-06T15:35:44.109Z,3.60
2019-05-06T15:40:45.936Z,2.83
2019-05-06T15:45:48.068Z,2.60
2019-05-06T15:50:50.232Z,3.00
2019-05-06T15:55:53.460Z,3.37
2019-05-06T16:00:55.908Z,2.83
2019-05-06T16:05:57.852Z,3.00
2019-05-06T16:11:02.817Z,3.37
2019-05-06T16:16:07.042Z,3.00
2019-05-06T16:21:10.001Z,3.57
2019-05-06T16:26:12.455Z,3.20
2019-05-06T16:31:14.701Z,3.63
2019-05-06T16:36:17.085Z,3.40
2019-05-06T16:41:19.654Z,3.47
2019-05-06T16:46:23.059Z,3.20
2019-05-06T16:51:25.480Z,2.90
2019-05-06T16:56:41.837Z,3.30
2019-05-06T17:01:46.029Z,3.03
2019-05-06T17:06:47.844Z,2.63
2019-05-06T17:11:49.812Z,2.40
2019-05-06T17:16:52.706Z,2.40
2019-05-06T17:21:55.950Z,2.40
2019-05-06T17:26:58.001Z,2.70
2019-05-06T17:32:07.592Z,2.57
2019-05-06T17:37:29.488Z,3.00
2019-05-06T17:42:31.458Z,2.80
2019-05-06T17:47:45.489Z,2.60
2019-05-06T17:52:47.305Z,3.03
2019-05-06T17:57:49.157Z,3.00
2019-05-06T18:02:52.724Z,3.03
2019-05-06T18:07:55.589Z,3.03
2019-05-06T18:12:58.051Z,2.83
2019-05-06T18:18:02.028Z,2.00
2019-05-06T18:23:03.935Z,2.00
2019-05-06T18:28:05.827Z,1.57
2019-05-06T18:33:07.711Z,1.23
2019-05-06T18:38:10.032Z,1.60
2019-05-06T18:43:12.890Z,1.53
2019-05-06T18:48:15.216Z,1.90
2019-05-06T18:53:18.626Z,2.17
2019-05-06T18:58:22.320Z,1.60
2019-05-06T19:03:27.043Z,1.43
2019-05-06T19:08:44.422Z,1.57
2019-05-06T19:13:47.267Z,1.77
2019-05-06T19:18:49.265Z,2.03
2019-05-06T19:23:51.932Z,1.40
2019-05-06T19:28:55.309Z,1.70
2019-05-06T19:33:57.407Z,1.90
2019-05-06T19:39:02.287Z,1.70
2019-05-06T19:44:05.876Z,1.73
2019-05-06T19:49:08.060Z,1.87
2019-05-06T19:54:12.495Z,1.80
2019-05-06T19:59:14.079Z,1.90
2019-05-06T20:04:16.530Z,1.97
2019-05-06T20:09:35.580Z,1.80
2019-05-06T20:14:37.881Z,1.83
2019-05-06T20:19:42.432Z,2.00
2019-05-06T20:24:44.547Z,2.00
2019-05-06T20:29:46.528Z,1.83
2019-05-06T20:34:50.167Z,2.30
2019-05-06T20:39:52.816Z,2.93
2019-05-06T20:44:54.924Z,2.30
2019-05-06T20:49:56.831Z,2.30
2019-05-06T20:54:58.669Z,2.30
2019-05-06T21:00:00.545Z,2.53
2019-05-06T21:05:02.346Z,2.30
2019-05-06T21:10:05.837Z,2.63
2019-05-06T21:15:08.311Z,2.80
2019-05-06T21:20:10.544Z,2.53
2019-05-06T21:25:13.526Z,2.80
2019-05-06T21:30:16.124Z,3.10
2019-05-06T21:35:18.362Z,2.80
2019-05-06T21:40:20.318Z,3.23
2019-05-06T21:45:22.466Z,2.83
2019-05-06T21:50:25.250Z,3.00
2019-05-06T21:55:27.288Z,2.90
2019-05-06T22:00:40.626Z,2.80
2019-05-06T22:05:42.757Z,2.77
2019-05-06T22:10:45.364Z,3.17
2019-05-06T22:15:47.652Z,2.90
2019-05-06T22:21:08.188Z,2.87
2019-05-06T22:26:13.960Z,3.50
2019-05-06T22:31:14.505Z,3.27
2019-05-06T22:36:16.997Z,3.20
2019-05-06T22:41:18.913Z,3.10
2019-05-06T22:46:23.179Z,3.03
2019-05-06T22:51:25.665Z,2.87
2019-05-06T22:56:28.178Z,3.20
2019-05-06T23:01:48.339Z,3.60
2019-05-06T23:06:50.301Z,2.90
2019-05-06T23:11:52.243Z,3.63
2019-05-06T23:16:54.068Z,3.57
2019-05-06T23:21:56.024Z,3.73
2019-05-06T23:26:58.153Z,3.50
2019-05-06T23:32:02.840Z,3.60
2019-05-06T23:37:23.173Z,3.73
2019-05-06T23:43:03.281Z,3.53
2019-05-06T23:48:43.042Z,3.73
2019-05-06T23:54:22.114Z,3.63
2019-05-06T23:59:24.396Z,3.90
